createdAt,value
2019-04-28T00:02:10.994Z,68.83
2019-04-28T00:07:17.144Z,70.40
2019-04-28T00:12:23.069Z,26.50
2019-04-28T00:17:30.857Z,16.17
2019-04-28T00:22:38.669Z,12.93
2019-04-28T00:27:44.558Z,11.87
2019-04-28T00:32:51.897Z,34.95
2019-04-28T00:37:57.833Z,109.48
2019-04-28T00:43:03.882Z,103.10
2019-04-28T00:48:10.963Z,176.37
2019-04-28T00:53:17.380Z,212.75
2019-04-28T00:58:23.553Z,62.35
2019-04-28T01:03:35.258Z,69.53
2019-04-28T01:08:38.650Z,122.65
2019-04-28T01:13:44.724Z,182.70
2019-04-28T01:18:52.459Z,53.80
2019-04-28T01:23:59.799Z,21.37
2019-04-28T01:29:06.629Z,54.63
2019-04-28T01:34:20.550Z,15.93
2019-04-28T01:39:26.863Z,121.10
2019-04-28T01:44:32.834Z,428.57
2019-04-28T01:49:40.507Z,143.60
2019-04-28T01:54:46.528Z,349.67
2019-04-28T01:59:52.808Z,154.67
2019-04-28T02:04:59.898Z,71.63
2019-04-28T02:20:23.373Z,93.60
2019-04-28T02:25:29.840Z,144.73
2019-04-28T02:30:45.398Z,42.77
2019-04-28T02:35:43.794Z,157.27
2019-04-28T02:40:50.589Z,98.97
2019-04-28T02:45:56.891Z,99.72
2019-04-28T02:51:16.381Z,72.73
2019-04-28T02:56:25.011Z,73.27
2019-04-28T03:01:31.706Z,56.30
2019-04-28T03:06:40.532Z,76.07
2019-04-28T03:11:45.471Z,379.63
2019-04-28T03:16:52.082Z,135.00
2019-04-28T03:22:01.063Z,151.72
2019-04-28T03:27:07.696Z,202.97
2019-04-28T03:32:43.111Z,249.77
2019-04-28T03:37:33.717Z,486.97
2019-04-28T03:42:41.127Z,288.30
2019-04-28T03:52:53.079Z,462.63
2019-04-28T03:58:03.643Z,464.80
2019-04-28T04:03:10.915Z,312.80
2019-04-28T04:13:41.577Z,224.43
2019-04-28T04:18:53.193Z,175.77
2019-04-28T04:29:02.853Z,58.73
2019-04-28T04:34:10.684Z,56.03
2019-04-28T04:39:17.194Z,192.50
2019-04-28T04:44:23.375Z,166.77
2019-04-28T04:49:31.613Z,265.73
2019-04-28T05:04:50.854Z,422.97
2019-04-28T05:09:56.122Z,324.53
2019-04-28T05:20:13.723Z,282.47
2019-04-28T05:25:24.523Z,259.33
2019-04-28T05:30:34.958Z,271.80
2019-04-28T05:35:41.407Z,338.53
2019-04-28T05:40:52.728Z,513.23
2019-04-28T05:46:00.315Z,570.97
2019-04-28T05:51:09.435Z,575.73
2019-04-28T05:56:17.110Z,458.77
2019-04-28T06:06:40.412Z,373.57
2019-04-28T06:11:49.534Z,414.70
2019-04-28T06:16:55.667Z,329.02
2019-04-28T06:22:01.633Z,498.60
2019-04-28T06:27:07.701Z,289.47
2019-04-28T06:32:13.780Z,332.40
2019-04-28T06:37:19.742Z,188.97
2019-04-28T06:42:25.818Z,197.63
2019-04-28T06:47:32.063Z,214.43
2019-04-28T06:57:44.377Z,238.20
2019-04-28T07:02:50.515Z,233.13
2019-04-28T07:07:56.794Z,171.13
2019-04-28T07:13:02.852Z,163.60
2019-04-28T07:23:15.094Z,182.17
2019-04-28T07:38:35.801Z,258.43
2019-04-28T07:48:47.750Z,233.45
2019-04-28T07:53:55.454Z,226.83
2019-04-28T07:59:01.849Z,132.70
2019-04-28T08:04:08.583Z,57.63
2019-04-28T08:09:21.379Z,35.00
2019-04-28T08:19:33.312Z,10.40
2019-04-28T08:24:39.408Z,8.33
2019-04-28T08:29:57.794Z,7.03
2019-04-28T08:39:58.990Z,5.90
2019-04-28T08:45:04.965Z,5.87
2019-04-28T08:50:10.859Z,5.57
2019-04-28T14:56:31.296Z,8.67
2019-04-28T15:01:55.414Z,7.63
2019-04-28T15:07:15.399Z,7.30
2019-04-28T15:12:21.495Z,10.10
2019-04-28T15:17:27.748Z,10.43
2019-04-28T15:22:33.661Z,9.13
2019-04-28T15:27:39.589Z,9.77
2019-04-28T15:32:45.563Z,9.70
2019-04-28T15:37:51.732Z,9.83
2019-04-28T15:42:57.698Z,8.23
2019-04-28T15:53:09.443Z,8.23
2019-04-28T15:58:20.839Z,8.50
2019-04-28T16:03:29.027Z,7.60
2019-04-28T16:08:35.014Z,8.20
2019-04-28T16:13:40.973Z,8.40
2019-04-28T16:18:47.190Z,9.30
2019-04-28T16:23:53.467Z,9.13
2019-04-28T16:28:59.628Z,9.20
2019-04-28T16:34:05.606Z,9.20
2019-04-28T16:39:11.579Z,8.70
2019-04-28T16:44:17.542Z,9.20
2019-04-28T16:49:23.717Z,9.43
2019-04-28T16:54:29.585Z,9.30
2019-04-28T16:59:37.022Z,8.90
2019-04-28T17:04:43.124Z,9.70
2019-04-28T17:14:54.977Z,8.77
2019-04-28T17:20:02.209Z,9.50
2019-04-28T17:25:10.534Z,9.13
2019-04-28T17:30:16.270Z,9.28
2019-04-28T17:35:22.276Z,9.83
2019-04-28T17:40:29.787Z,9.57
2019-04-28T17:45:35.747Z,9.53
2019-04-28T17:50:41.614Z,10.13
2019-04-28T18:00:53.019Z,11.07
2019-04-28T18:06:16.840Z,10.53
2019-04-28T18:11:11.052Z,10.97
2019-04-28T18:16:28.936Z,10.10
2019-04-28T18:21:35.086Z,11.23
2019-04-28T18:26:41.001Z,10.60
2019-04-28T18:32:04.711Z,10.53
2019-04-28T18:37:18.481Z,10.47
2019-04-28T18:42:44.995Z,10.10
2019-04-28T18:47:50.957Z,9.90
2019-04-28T18:52:56.856Z,10.33
2019-04-28T18:58:02.826Z,10.50
2019-04-28T19:03:09.042Z,9.70
2019-04-28T19:08:17.747Z,9.83
2019-04-28T19:13:28.095Z,10.07
2019-04-28T19:18:35.619Z,9.67
2019-04-28T19:28:47.458Z,10.08
2019-04-28T19:33:53.837Z,10.57
2019-04-28T19:39:03.313Z,9.97
2019-04-28T19:44:07.794Z,10.27
2019-04-28T19:49:13.714Z,10.30
2019-04-28T19:54:21.308Z,10.20
2019-04-28T19:59:31.575Z,11.13
2019-04-28T20:04:37.771Z,10.20
2019-04-28T20:09:43.745Z,10.97
2019-04-28T20:14:49.703Z,11.13
2019-04-28T20:19:54.841Z,9.60
2019-04-28T20:25:00.711Z,9.37
2019-04-28T20:30:06.700Z,9.23
2019-04-28T20:35:13.121Z,10.50
2019-04-28T20:45:29.358Z,9.33
2019-04-28T20:50:35.379Z,10.77
2019-04-28T20:55:41.349Z,10.77
2019-04-28T21:01:02.674Z,11.30
2019-04-28T21:06:08.652Z,10.30
2019-04-28T21:11:14.617Z,11.60
2019-04-28T21:16:21.513Z,11.30
2019-04-28T21:21:27.700Z,10.85
2019-04-28T21:26:33.659Z,10.37
2019-04-28T21:31:39.529Z,10.87
2019-04-28T21:36:45.810Z,11.83
2019-04-28T21:41:51.675Z,10.93
2019-04-28T21:47:03.491Z,10.97
2019-04-28T21:52:09.864Z,11.03
2019-04-28T21:57:15.731Z,10.48
2019-04-28T22:02:21.600Z,10.38
2019-04-28T22:07:27.580Z,11.13
2019-04-28T22:12:33.749Z,10.82
2019-04-28T22:17:39.620Z,9.97
2019-04-28T22:22:45.588Z,10.40
2019-04-28T22:27:51.557Z,11.00
2019-04-28T22:32:57.752Z,11.27
2019-04-28T22:38:03.702Z,10.93
2019-04-28T22:43:09.688Z,10.87
2019-04-28T22:48:17.289Z,10.60
2019-04-28T22:53:24.688Z,10.90
2019-04-28T22:58:32.298Z,10.97
2019-04-28T23:03:52.030Z,10.72
2019-04-28T23:08:58.895Z,10.17
2019-04-28T23:14:04.548Z,11.10
2019-04-28T23:19:12.139Z,72.73
2019-04-28T23:24:18.835Z,98.47
2019-04-28T23:29:24.909Z,97.63
2019-04-28T23:39:36.653Z,246.28
2019-04-28T23:44:42.721Z,268.87
2019-04-28T23:49:48.593Z,259.27
2019-04-28T23:54:59.152Z,299.63
